Time;durP1;ratioP1;P1;durP2;ratioP2;P2;SDS_P1;SDS_P2;PMS_P1;PMS_P2;Temp;Humidity;BMP_temperature;BMP_pressure;BME280_temperature;BME280_humidity;BME280_pressure;Samples;Min_cycle;Max_cycle;Signal;HPM_P1;HPM_P2
2022/03/06 00:00:43;;;;;;;21.50;11.63;;;0.60;99.90;;;;;;5112363;28;20066;-84
2022/03/06 00:03:09;;;;;;;22.65;11.07;;;0.60;99.90;;;;;;5117981;28;20034;-84
2022/03/06 00:05:36;;;;;;;17.13;10.45;;;0.60;99.90;;;;;;5113359;28;20521;-84
2022/03/06 00:08:02;;;;;;;20.73;11.43;;;0.60;99.90;;;;;;5111935;28;20031;-84
2022/03/06 00:10:29;;;;;;;20.30;12.07;;;0.60;99.90;;;;;;5105390;28;20032;-84
2022/03/06 00:12:55;;;;;;;18.10;11.68;;;0.60;99.90;;;;;;5134521;27;20023;-84
2022/03/06 00:15:26;;;;;;;18.70;11.63;;;0.60;99.90;;;;;;5126196;27;20063;-84
2022/03/06 00:17:52;;;;;;;18.80;11.30;;;0.60;99.90;;;;;;5116088;28;20408;-84
2022/03/06 00:20:19;;;;;;;17.27;10.88;;;0.60;99.90;;;;;;5116013;28;20475;-84
2022/03/06 00:22:45;;;;;;;17.95;11.50;;;0.60;99.90;;;;;;5097818;28;20020;-84
2022/03/06 00:25:11;;;;;;;22.63;13.65;;;0.60;99.90;;;;;;5096621;28;20024;-85
2022/03/06 00:27:36;;;;;;;23.58;12.85;;;0.60;99.90;;;;;;5116067;28;20020;-85
2022/03/06 00:30:04;;;;;;;20.85;12.93;;;0.60;99.90;;;;;;5119065;27;20023;-85
2022/03/06 00:32:30;;;;;;;22.92;14.00;;;0.70;99.90;;;;;;5115454;27;20031;-85
2022/03/06 00:34:55;;;;;;;24.52;13.55;;;0.60;99.90;;;;;;5119898;27;20068;-85
2022/03/06 00:37:21;;;;;;;19.52;13.27;;;0.70;99.90;;;;;;5122479;27;20552;-84
2022/03/06 00:39:46;;;;;;;18.02;11.70;;;0.60;99.90;;;;;;5114834;27;20072;-84
2022/03/06 00:42:12;;;;;;;18.15;12.30;;;0.60;99.90;;;;;;5097177;28;20023;-84
2022/03/06 00:44:38;;;;;;;22.67;12.90;;;0.70;99.90;;;;;;5100416;28;20046;-84
2022/03/06 00:47:04;;;;;;;22.30;11.80;;;0.70;99.90;;;;;;5097759;28;20027;-84
2022/03/06 00:49:33;;;;;;;23.20;12.93;;;0.70;99.90;;;;;;5097349;28;20024;-84
2022/03/06 00:51:58;;;;;;;21.20;13.02;;;0.70;99.90;;;;;;5115595;28;20047;-84
2022/03/06 00:54:30;;;;;;;20.30;12.63;;;0.70;99.90;;;;;;5112482;28;20047;-84
2022/03/06 00:56:56;;;;;;;23.38;13.52;;;0.70;99.90;;;;;;5124629;27;20065;-84
2022/03/06 00:59:35;;;;;;;24.40;13.80;;;0.70;99.90;;;;;;5133687;27;20374;-84
2022/03/06 01:02:03;;;;;;;20.20;13.25;;;0.70;99.90;;;;;;5116075;28;20383;-84
2022/03/06 01:04:29;;;;;;;23.98;14.10;;;0.60;99.90;;;;;;5115444;28;20062;-84
2022/03/06 01:07:13;;;;;;;19.95;13.68;;;0.60;99.90;;;;;;5127232;27;20027;-85
2022/03/06 01:09:38;;;;;;;23.40;13.05;;;0.60;99.90;;;;;;5124584;27;20038;-84
2022/03/06 01:12:04;;;;;;;23.38;12.55;;;0.60;99.90;;;;;;5115248;28;20464;-84
2022/03/06 01:14:32;;;;;;;25.63;12.65;;;0.60;99.90;;;;;;5097795;27;20023;-84
2022/03/06 01:16:58;;;;;;;29.63;14.15;;;0.60;99.90;;;;;;5124023;27;20036;-84
2022/03/06 01:19:35;;;;;;;23.83;13.68;;;0.60;99.90;;;;;;5096768;28;20024;-84
2022/03/06 01:22:02;;;;;;;29.10;14.93;;;0.60;99.90;;;;;;5112927;28;20123;-84
2022/03/06 01:24:28;;;;;;;24.75;13.32;;;0.60;99.90;;;;;;5115181;28;20019;-85
2022/03/06 01:26:53;;;;;;;28.17;15.18;;;0.60;99.90;;;;;;5131895;27;20103;-84
2022/03/06 01:29:22;;;;;;;23.65;14.48;;;0.60;99.90;;;;;;5115676;28;20016;-84
2022/03/06 01:31:48;;;;;;;23.70;14.00;;;0.60;99.90;;;;;;5115495;27;20365;-84
2022/03/06 01:34:14;;;;;;;33.63;17.45;;;0.60;99.90;;;;;;5114466;28;20107;-84
2022/03/06 01:36:40;;;;;;;29.77;16.75;;;0.60;99.90;;;;;;5113556;28;20126;-84
2022/03/06 01:39:11;;;;;;;34.40;17.15;;;0.60;99.90;;;;;;5115243;28;20100;-84
2022/03/06 01:41:37;;;;;;;30.67;16.67;;;0.60;99.90;;;;;;5114927;28;20482;-84
2022/03/06 01:44:04;;;;;;;29.48;17.80;;;0.60;99.90;;;;;;5115026;28;20107;-85
2022/03/06 01:46:32;;;;;;;34.00;18.27;;;0.60;99.90;;;;;;5102507;28;20049;-85
2022/03/06 01:48:58;;;;;;;28.70;17.10;;;0.60;99.90;;;;;;5114740;28;20028;-85
2022/03/06 01:51:23;;;;;;;30.15;16.92;;;0.60;99.90;;;;;;5115267;27;20023;-85
2022/03/06 01:53:50;;;;;;;31.35;18.80;;;0.60;99.90;;;;;;5114624;28;20031;-84
2022/03/06 01:56:16;;;;;;;33.53;20.02;;;0.60;99.90;;;;;;5114675;27;20032;-84
2022/03/06 01:58:48;;;;;;;33.10;18.67;;;0.50;99.90;;;;;;5096877;28;20507;-84
2022/03/06 02:01:14;;;;;;;34.85;19.50;;;0.50;99.90;;;;;;5120493;27;20020;-84
2022/03/06 02:03:48;;;;;;;42.53;20.48;;;0.50;99.90;;;;;;5114592;28;20383;-84
2022/03/06 02:06:16;;;;;;;41.00;20.57;;;0.50;99.90;;;;;;5117856;27;20517;-85
2022/03/06 02:08:41;;;;;;;37.70;19.80;;;0.50;99.90;;;;;;5114945;28;20262;-84
2022/03/06 02:11:17;;;;;;;31.83;19.08;;;0.50;99.90;;;;;;5114201;28;20102;-84
2022/03/06 02:13:43;;;;;;;;;;;0.30;99.90;;;;;;5112027;28;20019;-84
2022/03/06 02:16:09;;;;;;;;;;;0.40;99.90;;;;;;5123079;27;20358;-85
2022/03/06 02:18:36;;;;;;;35.88;21.40;;;0.50;99.90;;;;;;5134924;27;20370;-84
2022/03/06 02:21:08;;;;;;;40.92;21.45;;;0.50;99.90;;;;;;5116628;27;20392;-84
2022/03/06 02:23:35;;;;;;;35.63;19.85;;;0.40;99.90;;;;;;5114398;28;20032;-84
2022/03/06 02:26:01;;;;;;;42.40;21.40;;;0.30;99.90;;;;;;5120498;27;20654;-84
2022/03/06 02:28:27;;;;;;;37.78;22.50;;;0.40;99.90;;;;;;5122000;27;20032;-84
2022/03/06 02:31:00;;;;;;;36.88;19.98;;;0.40;99.90;;;;;;5123984;27;20038;-84
2022/03/06 02:33:25;;;;;;;41.13;22.58;;;0.40;99.90;;;;;;5116433;27;20045;-84
2022/03/06 02:35:52;;;;;;;37.60;22.80;;;0.40;99.90;;;;;;5095278;28;20118;-84
2022/03/06 02:38:18;;;;;;;44.83;22.30;;;0.40;99.90;;;;;;5114063;28;20431;-84
2022/03/06 02:40:44;;;;;;;39.80;21.90;;;0.40;99.90;;;;;;5118917;27;20019;-84
2022/03/06 02:43:29;;;;;;;33.50;19.13;;;0.30;99.90;;;;;;5113607;28;20023;-84
2022/03/06 02:45:55;;;;;;;40.67;22.25;;;0.40;99.90;;;;;;5113537;27;20028;-84
2022/03/06 02:48:21;;;;;;;41.08;21.77;;;0.40;99.90;;;;;;5113654;28;20081;-84
2022/03/06 02:50:54;;;;;;;40.17;20.45;;;0.40;99.90;;;;;;5121458;27;20028;-84
2022/03/06 02:53:22;;;;;;;36.13;20.55;;;0.40;99.90;;;;;;5113987;27;20030;-84
2022/03/06 02:55:48;;;;;;;38.08;20.75;;;0.40;99.90;;;;;;5113677;28;20062;-84
2022/03/06 02:58:19;;;;;;;38.70;19.50;;;0.40;99.90;;;;;;5120871;27;20023;-84
2022/03/06 03:00:45;;;;;;;34.88;18.30;;;0.40;99.90;;;;;;5105030;28;20023;-84
2022/03/06 03:03:12;;;;;;;43.40;22.33;;;0.40;99.90;;;;;;5107024;27;20031;-85
2022/03/06 03:05:37;;;;;;;38.88;21.63;;;0.40;99.90;;;;;;5124433;27;20114;-84
2022/03/06 03:08:09;;;;;;;36.20;20.85;;;0.30;99.90;;;;;;5122701;27;20062;-84
2022/03/06 03:10:35;;;;;;;38.25;21.80;;;0.40;99.90;;;;;;5133822;27;20052;-84
2022/03/06 03:13:00;;;;;;;37.17;20.35;;;0.40;99.90;;;;;;5116999;27;20035;-84
2022/03/06 03:15:32;;;;;;;34.45;20.02;;;0.30;99.90;;;;;;5113236;28;20031;-85
2022/03/06 03:17:57;;;;;;;33.42;19.52;;;0.30;99.90;;;;;;5094782;28;20032;-84
2022/03/06 03:20:29;;;;;;;39.17;21.50;;;0.30;99.90;;;;;;5095647;28;20034;-85
2022/03/06 03:22:55;;;;;;;32.95;20.67;;;0.40;99.90;;;;;;5112642;28;20463;-84
2022/03/06 03:25:23;;;;;;;36.67;21.70;;;0.30;99.90;;;;;;5112970;28;20031;-84
2022/03/06 03:27:48;;;;;;;37.67;21.25;;;0.30;99.90;;;;;;5113268;28;20413;-84
2022/03/06 03:30:14;;;;;;;33.90;21.23;;;0.30;99.90;;;;;;5112759;28;20027;-84
2022/03/06 03:32:41;;;;;;;32.10;19.40;;;0.30;99.90;;;;;;5126323;27;20031;-85
2022/03/06 03:35:07;;;;;;;31.92;18.83;;;0.20;99.90;;;;;;5128782;27;20088;-84
2022/03/06 03:37:33;;;;;;;40.17;21.73;;;0.30;99.90;;;;;;5090263;28;20522;-84
2022/03/06 03:40:08;;;;;;;42.50;21.40;;;0.30;99.90;;;;;;5092450;28;20024;-84
2022/03/06 03:42:33;;;;;;;38.97;19.98;;;0.30;99.90;;;;;;5092250;28;20032;-84
2022/03/06 03:45:04;;;;;;;34.95;20.08;;;0.20;99.90;;;;;;5091114;28;20020;-84
2022/03/06 03:47:30;;;;;;;39.05;19.63;;;0.20;99.90;;;;;;5092303;28;20031;-84
2022/03/06 03:49:56;;;;;;;35.67;19.70;;;0.20;99.90;;;;;;5091118;28;20414;-84
2022/03/06 03:52:23;;;;;;;42.42;21.67;;;0.20;99.90;;;;;;5091376;28;20028;-84
2022/03/06 03:54:49;;;;;;;36.20;19.95;;;0.20;99.90;;;;;;5097034;28;20030;-84
2022/03/06 03:57:15;;;;;;;39.05;22.15;;;0.20;99.90;;;;;;5093667;28;20028;-84
2022/03/06 03:59:42;;;;;;;38.95;19.80;;;0.20;99.90;;;;;;5100977;28;20028;-84
2022/03/06 04:02:07;;;;;;;32.85;19.25;;;0.20;99.90;;;;;;5091904;28;20371;-84
2022/03/06 04:04:37;;;;;;;30.27;18.88;;;0.20;99.90;;;;;;5102725;28;20036;-84
2022/03/06 04:07:03;;;;;;;39.38;21.20;;;0.20;99.90;;;;;;5093582;28;20028;-84
2022/03/06 04:09:28;;;;;;;41.20;21.55;;;0.20;99.90;;;;;;5092050;28;20077;-84
2022/03/06 04:11:54;;;;;;;30.65;19.25;;;0.20;99.90;;;;;;5090963;28;20424;-84
2022/03/06 04:14:20;;;;;;;35.67;21.27;;;0.20;99.90;;;;;;5092225;28;20031;-84
2022/03/06 04:16:45;;;;;;;46.03;21.20;;;0.20;99.90;;;;;;5092042;28;20024;-84
2022/03/06 04:19:11;;;;;;;44.38;20.45;;;0.30;99.90;;;;;;5096421;28;20023;-84
2022/03/06 04:21:47;;;;;;;36.95;21.48;;;0.30;99.90;;;;;;5097842;28;20020;-84
2022/03/06 04:24:13;;;;;;;39.05;20.58;;;0.20;99.90;;;;;;5097800;28;20360;-84
2022/03/06 04:26:39;;;;;;;42.75;20.63;;;0.20;99.90;;;;;;5096765;28;20035;-84
2022/03/06 04:29:05;;;;;;;35.72;21.73;;;0.20;99.90;;;;;;5096109;28;20062;-84
2022/03/06 04:31:31;;;;;;;38.40;20.27;;;0.10;99.90;;;;;;5097381;28;20047;-84
2022/03/06 04:33:58;;;;;;;33.22;19.52;;;0.20;99.90;;;;;;5097275;28;20055;-84
2022/03/06 04:36:25;;;;;;;34.83;19.90;;;0.10;99.90;;;;;;5103028;28;20028;-84
2022/03/06 04:38:51;;;;;;;38.10;20.85;;;0.20;99.90;;;;;;5129297;28;20038;-84
2022/03/06 04:41:17;;;;;;;37.25;21.23;;;0.20;99.90;;;;;;5112464;28;20020;-85
2022/03/06 04:43:43;;;;;;;37.42;20.23;;;0.10;99.90;;;;;;5094216;28;20563;-84
2022/03/06 04:46:23;;;;;;;35.10;18.33;;;0.20;99.90;;;;;;5112479;28;20038;-84
2022/03/06 04:48:49;;;;;;;33.78;19.08;;;0.20;99.90;;;;;;5112049;28;20502;-84
2022/03/06 04:51:14;;;;;;;35.20;19.60;;;0.20;99.90;;;;;;5112288;28;20024;-84
2022/03/06 04:53:43;;;;;;;34.42;17.98;;;0.30;99.90;;;;;;5112171;28;20425;-84
2022/03/06 04:56:09;;;;;;;44.78;21.15;;;0.30;99.90;;;;;;5112335;28;20390;-84
2022/03/06 04:58:35;;;;;;;43.55;20.23;;;0.30;99.90;;;;;;5094945;28;20022;-84
2022/03/06 05:01:21;;;;;;;31.23;18.50;;;0.40;99.90;;;;;;5116018;28;20460;-84
2022/03/06 05:03:47;;;;;;;31.92;18.17;;;0.30;99.90;;;;;;5102240;28;20376;-83
2022/03/06 05:06:12;;;;;;;42.03;22.30;;;0.30;99.90;;;;;;5095444;28;20032;-83
2022/03/06 05:08:42;;;;;;;38.17;20.75;;;0.40;99.90;;;;;;5136587;27;20099;-83
2022/03/06 05:11:08;;;;;;;32.97;19.17;;;0.40;99.90;;;;;;5136682;27;20067;-83
2022/03/06 05:13:33;;;;;;;37.83;20.58;;;0.40;99.90;;;;;;5136741;27;20027;-83
2022/03/06 05:15:59;;;;;;;38.63;20.30;;;0.40;99.90;;;;;;5118021;27;20110;-83
2022/03/06 05:18:25;;;;;;;41.17;19.40;;;0.40;99.90;;;;;;5097804;28;20375;-83
2022/03/06 05:20:50;;;;;;;32.25;18.10;;;0.40;99.90;;;;;;5102063;28;20384;-83
2022/03/06 05:23:17;;;;;;;36.10;19.52;;;0.30;99.90;;;;;;5115615;28;20024;-83
2022/03/06 05:25:46;;;;;;;31.88;16.98;;;0.30;99.90;;;;;;5115564;28;20030;-83
2022/03/06 05:28:12;;;;;;;34.85;19.65;;;0.40;99.90;;;;;;5115616;28;20032;-83
2022/03/06 05:30:51;;;;;;;34.00;19.45;;;0.40;99.90;;;;;;5115558;28;20494;-83
2022/03/06 05:33:17;;;;;;;29.42;18.10;;;0.40;99.90;;;;;;5115299;28;20104;-83
2022/03/06 05:35:43;;;;;;;36.05;19.90;;;0.30;99.90;;;;;;5115538;28;20515;-83
2022/03/06 05:38:08;;;;;;;41.13;20.58;;;0.30;99.90;;;;;;5093627;28;20089;-83
2022/03/06 05:40:37;;;;;;;32.42;19.48;;;0.30;99.90;;;;;;5093418;28;20020;-83
2022/03/06 05:43:04;;;;;;;33.60;19.40;;;0.30;99.90;;;;;;5093721;28;20022;-83
2022/03/06 05:45:29;;;;;;;33.55;19.23;;;0.20;99.90;;;;;;5094811;28;20056;-83
2022/03/06 05:48:01;;;;;;;36.25;19.38;;;0.20;99.90;;;;;;5093091;28;20089;-83
2022/03/06 05:50:27;;;;;;;29.42;17.65;;;0.20;99.90;;;;;;5094844;28;20032;-83
2022/03/06 05:52:52;;;;;;;33.15;18.60;;;0.20;99.90;;;;;;5094463;28;20426;-82
2022/03/06 05:55:21;;;;;;;37.25;19.75;;;0.30;99.90;;;;;;5094631;28;20027;-83
2022/03/06 05:57:47;;;;;;;34.85;18.27;;;0.30;99.90;;;;;;5094538;28;20472;-83
2022/03/06 06:00:17;;;;;;;30.75;19.02;;;0.30;99.90;;;;;;5094519;28;20031;-83
2022/03/06 06:02:43;;;;;;;35.03;18.42;;;0.30;99.90;;;;;;5094134;28;20102;-83
2022/03/06 06:05:09;;;;;;;37.67;19.02;;;0.30;99.90;;;;;;5093224;28;20519;-83
2022/03/06 06:07:36;;;;;;;26.40;16.75;;;0.30;99.90;;;;;;5094477;28;20464;-83
2022/03/06 06:10:04;;;;;;;35.47;18.75;;;0.20;99.90;;;;;;5094363;28;20422;-83
2022/03/06 06:12:29;;;;;;;30.30;18.13;;;0.30;99.90;;;;;;5092964;28;20039;-83
2022/03/06 06:14:58;;;;;;;32.55;18.75;;;0.30;99.90;;;;;;5093078;28;20024;-82
2022/03/06 06:17:24;;;;;;;37.05;19.65;;;0.30;99.90;;;;;;5093912;28;20012;-82
2022/03/06 06:19:50;;;;;;;47.92;18.90;;;0.20;99.90;;;;;;5092843;28;20026;-83
2022/03/06 06:22:16;;;;;;;31.85;18.60;;;0.20;99.90;;;;;;5092195;28;20028;-83
2022/03/06 06:24:43;;;;;;;28.75;17.35;;;0.20;99.90;;;;;;5093573;28;20073;-83
2022/03/06 06:27:08;;;;;;;29.60;17.85;;;0.20;99.90;;;;;;5093427;28;20024;-82
2022/03/06 06:29:34;;;;;;;32.72;19.30;;;0.20;99.90;;;;;;5093666;28;20024;-82
2022/03/06 06:32:00;;;;;;;36.13;19.25;;;0.20;99.90;;;;;;5093666;28;20464;-82
2022/03/06 06:34:25;;;;;;;35.13;19.42;;;0.20;99.90;;;;;;5093557;28;20027;-82
2022/03/06 06:36:57;;;;;;;32.55;18.88;;;0.20;99.90;;;;;;5097689;28;20078;-82
2022/03/06 06:39:23;;;;;;;34.38;18.73;;;0.20;99.90;;;;;;5104658;27;20026;-82
2022/03/06 06:41:49;;;;;;;41.25;19.73;;;0.20;99.90;;;;;;5120448;27;20141;-82
2022/03/06 06:44:16;;;;;;;35.03;20.02;;;0.20;99.90;;;;;;5113741;28;20098;-82
2022/03/06 06:46:43;;;;;;;44.20;21.33;;;0.20;99.90;;;;;;5113589;28;20031;-82
2022/03/06 06:49:10;;;;;;;30.85;18.77;;;0.20;99.90;;;;;;5112595;28;20364;-82
2022/03/06 06:51:39;;;;;;;34.30;19.38;;;0.20;99.90;;;;;;5113027;28;20129;-82
2022/03/06 06:54:05;;;;;;;32.25;19.67;;;0.20;99.90;;;;;;5112981;28;20421;-82
2022/03/06 06:56:31;;;;;;;37.63;19.33;;;0.20;99.90;;;;;;5094837;28;20061;-82
2022/03/06 06:58:57;;;;;;;38.25;17.83;;;0.20;99.90;;;;;;5113276;27;20479;-82
2022/03/06 07:01:23;;;;;;;28.63;16.55;;;0.20;99.90;;;;;;5105845;28;20027;-82
2022/03/06 07:03:49;;;;;;;29.65;17.88;;;0.20;99.90;;;;;;5112103;28;20032;-82
2022/03/06 07:06:15;;;;;;;37.15;19.20;;;0.20;99.90;;;;;;5117117;27;20030;-83
2022/03/06 07:08:40;;;;;;;33.90;17.25;;;0.30;99.90;;;;;;5117973;27;20088;-83
2022/03/06 07:11:07;;;;;;;34.15;16.52;;;0.20;99.90;;;;;;5112916;27;20031;-83
2022/03/06 07:13:32;;;;;;;28.60;17.90;;;0.20;99.90;;;;;;5112758;28;20024;-83
2022/03/06 07:15:58;;;;;;;32.08;16.88;;;0.20;99.90;;;;;;5121658;27;20087;-83
2022/03/06 07:18:23;;;;;;;29.35;16.35;;;0.20;99.90;;;;;;5123632;27;20023;-83
2022/03/06 07:20:49;;;;;;;30.30;16.92;;;0.30;99.90;;;;;;5095620;28;20024;-83
2022/03/06 07:23:15;;;;;;;25.58;16.00;;;0.30;99.90;;;;;;5112620;28;20505;-83
2022/03/06 07:25:41;;;;;;;30.27;15.95;;;0.30;99.90;;;;;;5119035;27;20031;-83
2022/03/06 07:28:07;;;;;;;32.63;17.65;;;0.30;99.90;;;;;;5127081;27;20028;-83
2022/03/06 07:30:33;;;;;;;29.02;16.45;;;0.40;99.90;;;;;;5130823;27;20035;-83
2022/03/06 07:33:00;;;;;;;30.00;17.00;;;0.40;99.90;;;;;;5123374;27;20093;-83
2022/03/06 07:35:27;;;;;;;24.77;15.73;;;0.40;99.90;;;;;;5127384;27;20020;-83
2022/03/06 07:37:53;;;;;;;29.58;16.60;;;0.40;99.90;;;;;;5115300;27;20038;-83
2022/03/06 07:40:21;;;;;;;31.48;16.42;;;0.40;99.90;;;;;;5094431;28;20377;-83
2022/03/06 07:42:47;;;;;;;32.60;16.63;;;0.40;99.90;;;;;;5117744;27;20370;-83
2022/03/06 07:45:13;;;;;;;31.27;17.50;;;0.40;99.90;;;;;;5112172;28;20523;-84
2022/03/06 07:47:39;;;;;;;29.80;15.88;;;0.40;99.90;;;;;;5106010;28;20038;-83
2022/03/06 07:50:07;;;;;;;30.90;16.58;;;0.40;99.90;;;;;;5092759;28;20024;-83
2022/03/06 07:52:34;;;;;;;27.80;15.57;;;0.50;99.90;;;;;;5111993;28;20428;-84
2022/03/06 07:54:59;;;;;;;30.35;15.63;;;0.50;99.90;;;;;;5110739;28;20102;-83
2022/03/06 07:57:25;;;;;;;34.78;16.52;;;0.50;99.90;;;;;;5093905;28;20282;-83
2022/03/06 07:59:51;;;;;;;32.83;16.52;;;0.50;99.90;;;;;;5111990;28;20068;-83
2022/03/06 08:02:16;;;;;;;30.60;15.93;;;0.60;99.90;;;;;;5111220;28;20020;-84
2022/03/06 08:04:42;;;;;;;31.10;17.15;;;0.50;99.90;;;;;;5093661;28;20482;-83
2022/03/06 08:07:08;;;;;;;27.13;15.30;;;0.60;99.90;;;;;;5116563;28;20501;-83
2022/03/06 08:09:33;;;;;;;30.52;16.27;;;0.60;99.90;;;;;;5111913;28;20066;-83
2022/03/06 08:12:00;;;;;;;31.52;17.00;;;0.50;99.90;;;;;;5118655;28;20020;-83
2022/03/06 08:14:27;;;;;;;34.00;17.05;;;0.60;99.90;;;;;;5111552;28;20063;-84
2022/03/06 08:16:53;;;;;;;27.80;16.25;;;0.60;99.90;;;;;;5093499;28;20398;-83
2022/03/06 08:19:18;;;;;;;32.40;17.42;;;0.50;99.90;;;;;;5112777;28;20107;-83
2022/03/06 08:21:44;;;;;;;32.08;16.88;;;0.50;99.90;;;;;;5118642;28;20019;-83
2022/03/06 08:24:09;;;;;;;28.98;16.08;;;0.50;99.90;;;;;;5121167;28;20020;-83
2022/03/06 08:26:35;;;;;;;34.55;16.73;;;0.50;99.90;;;;;;5106584;28;20031;-83
2022/03/06 08:29:00;;;;;;;24.88;15.32;;;0.60;99.90;;;;;;5117467;28;20111;-84
2022/03/06 08:31:26;;;;;;;29.08;15.50;;;0.60;99.90;;;;;;5096571;28;20134;-83
2022/03/06 08:33:53;;;;;;;30.75;15.88;;;0.60;99.90;;;;;;5116324;28;20042;-83
2022/03/06 08:36:19;;;;;;;26.02;15.10;;;0.60;99.90;;;;;;5126853;27;20027;-83
2022/03/06 08:38:45;;;;;;;22.05;14.20;;;0.60;99.90;;;;;;5126730;27;20119;-83
2022/03/06 08:41:11;;;;;;;20.77;13.50;;;0.60;99.90;;;;;;5097250;28;20114;-83
2022/03/06 08:43:36;;;;;;;26.92;13.43;;;0.60;99.90;;;;;;5117441;27;20027;-83
2022/03/06 08:46:03;;;;;;;24.52;12.95;;;0.60;99.90;;;;;;5124254;27;20023;-83
2022/03/06 08:48:32;;;;;;;23.83;12.93;;;0.60;99.90;;;;;;5114802;28;20031;-83
2022/03/06 08:50:58;;;;;;;26.42;12.85;;;0.60;99.90;;;;;;5115621;27;20187;-82
2022/03/06 08:53:24;;;;;;;17.20;11.93;;;0.60;99.90;;;;;;5115399;28;20114;-82
2022/03/06 08:55:49;;;;;;;29.10;14.30;;;0.60;99.90;;;;;;5115620;27;20030;-83
2022/03/06 08:58:15;;;;;;;26.35;13.48;;;0.60;99.90;;;;;;5116623;27;20391;-83
2022/03/06 09:00:41;;;;;;;23.50;11.82;;;0.70;99.90;;;;;;5114855;27;20024;-83
2022/03/06 09:03:06;;;;;;;26.52;13.20;;;0.70;99.90;;;;;;5112678;27;20024;-82
2022/03/06 09:05:32;;;;;;;23.08;12.38;;;0.80;99.90;;;;;;5115332;27;20487;-83
2022/03/06 09:07:57;;;;;;;27.75;13.10;;;0.80;99.90;;;;;;5121863;27;20114;-83
2022/03/06 09:10:23;;;;;;;25.83;13.02;;;0.80;99.90;;;;;;5122271;27;20034;-83
2022/03/06 09:12:49;;;;;;;23.63;12.35;;;0.70;99.90;;;;;;5114991;28;20024;-83
2022/03/06 09:15:15;;;;;;;27.85;12.63;;;0.90;99.90;;;;;;5096483;28;20039;-83
2022/03/06 09:17:41;;;;;;;23.27;13.15;;;0.80;99.90;;;;;;5121882;27;20021;-83
2022/03/06 09:20:07;;;;;;;20.60;12.10;;;0.90;99.90;;;;;;5114958;28;20527;-83
2022/03/06 09:22:33;;;;;;;22.55;11.95;;;0.90;99.90;;;;;;5116525;27;20035;-83
2022/03/06 09:24:59;;;;;;;19.10;11.98;;;0.90;99.90;;;;;;5111119;27;20015;-83
2022/03/06 09:27:24;;;;;;;21.15;11.73;;;0.90;99.90;;;;;;5114763;28;20052;-83
2022/03/06 09:29:50;;;;;;;20.17;11.50;;;0.90;99.90;;;;;;5096340;28;20394;-83
2022/03/06 09:32:15;;;;;;;18.75;11.75;;;0.90;99.90;;;;;;5096223;28;20054;-83
2022/03/06 09:34:42;;;;;;;24.10;13.23;;;0.90;99.90;;;;;;5114876;28;20084;-83
2022/03/06 09:37:08;;;;;;;23.83;12.38;;;1.00;99.90;;;;;;5114216;27;20100;-83
2022/03/06 09:39:34;;;;;;;19.00;11.88;;;1.00;99.90;;;;;;5114458;27;20475;-84
2022/03/06 09:42:00;;;;;;;20.45;11.38;;;1.00;99.90;;;;;;5114821;28;20055;-83
2022/03/06 09:44:27;;;;;;;19.58;10.05;;;1.00;99.90;;;;;;5127469;27;20031;-83
2022/03/06 09:46:56;;;;;;;18.88;11.07;;;1.00;99.90;;;;;;5116141;27;20526;-83
2022/03/06 09:49:21;;;;;;;13.70;9.20;;;1.00;99.90;;;;;;5111079;27;20145;-83
2022/03/06 09:51:47;;;;;;;18.15;9.57;;;1.10;99.90;;;;;;5126821;27;20849;-83
2022/03/06 09:54:13;;;;;;;18.13;9.30;;;1.10;99.90;;;;;;5122785;27;20502;-83
2022/03/06 09:56:43;;;;;;;18.50;8.95;;;1.10;99.90;;;;;;5120653;27;20038;-83
2022/03/06 09:59:09;;;;;;;17.73;8.73;;;1.20;99.90;;;;;;5123573;27;20027;-83
2022/03/06 10:01:35;;;;;;;19.48;8.32;;;1.10;99.90;;;;;;5111669;28;20022;-82
2022/03/06 10:04:24;;;;;;;17.17;9.13;;;1.10;99.90;;;;;;5113652;27;20394;-83
2022/03/06 10:07:06;;;;;;;14.95;7.90;;;1.10;99.90;;;;;;5113947;28;20019;-83
2022/03/06 10:09:46;;;;;;;20.67;9.48;;;1.20;99.90;;;;;;5118284;27;20051;-83
2022/03/06 10:12:29;;;;;;;18.63;9.05;;;1.10;99.90;;;;;;5115259;27;20080;-83
2022/03/06 10:15:00;;;;;;;13.43;7.95;;;1.20;99.90;;;;;;5103172;27;20494;-83
2022/03/06 10:17:31;;;;;;;14.27;7.68;;;1.20;99.90;;;;;;5116699;27;20020;-82
2022/03/06 10:19:58;;;;;;;15.13;7.03;;;1.20;99.90;;;;;;5096135;28;20015;-82
2022/03/06 10:22:32;;;;;;;14.60;7.90;;;1.20;99.90;;;;;;5114010;28;20286;-82
2022/03/06 10:24:59;;;;;;;14.75;7.40;;;1.20;99.90;;;;;;5114182;28;20026;-82
2022/03/06 10:27:54;;;;;;;15.43;6.95;;;1.20;99.90;;;;;;5114093;28;20016;-82
2022/03/06 10:30:41;;;;;;;13.45;7.35;;;1.30;99.90;;;;;;5114077;28;20018;-82
2022/03/06 10:33:19;;;;;;;17.38;7.70;;;1.30;99.90;;;;;;5113894;28;20515;-83
2022/03/06 10:35:47;;;;;;;13.82;7.57;;;1.30;99.90;;;;;;5095633;28;20034;-82
2022/03/06 10:38:23;;;;;;;10.45;6.10;;;1.30;99.90;;;;;;5113733;28;20040;-82
2022/03/06 10:40:50;;;;;;;14.65;6.10;;;1.30;99.90;;;;;;5095678;28;20051;-82
2022/03/06 10:43:23;;;;;;;10.07;5.65;;;1.30;99.90;;;;;;5113508;28;20016;-82
2022/03/06 10:45:50;;;;;;;10.80;5.63;;;1.30;99.90;;;;;;5113325;28;20024;-82
2022/03/06 10:48:17;;;;;;;11.90;5.10;;;1.30;99.90;;;;;;5095383;28;20027;-82
2022/03/06 10:50:43;;;;;;;9.95;4.60;;;1.20;99.90;;;;;;5113673;28;20015;-82
2022/03/06 10:53:24;;;;;;;8.10;4.15;;;1.20;99.90;;;;;;5113432;28;20048;-83
2022/03/06 10:55:52;;;;;;;7.00;4.28;;;1.20;99.90;;;;;;5094757;28;20055;-82
2022/03/06 10:58:19;;;;;;;8.55;4.43;;;1.20;99.90;;;;;;5094871;28;20031;-83
2022/03/06 11:00:46;;;;;;;9.23;5.22;;;1.30;99.90;;;;;;5113337;28;20405;-82
2022/03/06 11:03:13;;;;;;;6.72;4.38;;;1.30;99.90;;;;;;5095037;28;20020;-82
2022/03/06 11:05:43;;;;;;;7.13;4.00;;;1.30;99.90;;;;;;5113398;28;20062;-82
2022/03/06 11:08:14;;;;;;;9.75;4.20;;;1.30;99.90;;;;;;5094932;28;20019;-83
2022/03/06 11:10:45;;;;;;;15.07;4.82;;;1.30;99.90;;;;;;5117192;27;20073;-82
2022/03/06 11:13:14;;;;;;;9.23;4.55;;;1.30;99.90;;;;;;5113414;28;20483;-82
2022/03/06 11:15:52;;;;;;;7.38;4.63;;;1.30;99.90;;;;;;5092923;28;20020;-84
2022/03/06 11:18:18;;;;;;;8.90;4.35;;;1.30;99.90;;;;;;5093282;28;20063;-83
2022/03/06 11:20:45;;;;;;;8.25;5.38;;;1.30;99.90;;;;;;5112605;27;20027;-84
2022/03/06 11:23:28;;;;;;;7.55;4.57;;;1.30;99.90;;;;;;5126435;27;20436;-84
2022/03/06 11:26:15;;;;;;;6.75;4.25;;;1.30;99.90;;;;;;5113220;28;20027;-84
2022/03/06 11:29:08;;;;;;;9.73;4.72;;;1.30;99.90;;;;;;5113702;27;20027;-84
2022/03/06 11:31:49;;;;;;;7.78;3.95;;;1.30;99.90;;;;;;5126005;27;20027;-84
2022/03/06 11:34:25;;;;;;;8.52;4.13;;;1.30;99.90;;;;;;5101659;28;20115;-84
2022/03/06 11:36:54;;;;;;;8.63;4.38;;;1.30;99.90;;;;;;5092363;28;20047;-84
2022/03/06 11:39:32;;;;;;;7.88;4.47;;;1.30;99.90;;;;;;5089013;28;20020;-84
2022/03/06 11:41:59;;;;;;;8.52;5.18;;;1.30;99.90;;;;;;5113513;28;20020;-84
2022/03/06 11:45:02;;;;;;;8.85;4.55;;;1.40;99.90;;;;;;5120780;27;20538;-84
2022/03/06 11:47:42;;;;;;;6.30;4.65;;;1.40;99.90;;;;;;5008043;28;20037;-83
2022/03/06 11:50:27;;;;;;;12.30;5.80;;;1.40;99.90;;;;;;5102513;28;20099;-83
2022/03/06 11:52:53;;;;;;;8.40;5.05;;;1.40;99.90;;;;;;5122591;28;20026;-84
2022/03/06 11:55:32;;;;;;;10.32;5.32;;;1.40;99.90;;;;;;5097532;28;20394;-83
2022/03/06 11:57:58;;;;;;;18.00;6.03;;;1.40;99.90;;;;;;5108962;28;20498;-85
2022/03/06 12:00:30;;;;;;;5.85;4.68;;;1.40;99.90;;;;;;5094442;28;20020;-85
2022/03/06 12:02:59;;;;;;;12.65;4.85;;;1.40;99.90;;;;;;5112406;28;20072;-85
2022/03/06 12:05:46;;;;;;;11.13;4.90;;;1.40;99.90;;;;;;5112720;28;20038;-85
2022/03/06 12:08:14;;;;;;;10.45;4.72;;;1.30;99.90;;;;;;5095950;28;20062;-85
2022/03/06 12:10:41;;;;;;;10.90;4.78;;;1.30;99.90;;;;;;5117086;28;20391;-85
2022/03/06 12:13:17;;;;;;;7.80;4.15;;;1.30;99.90;;;;;;5116540;28;20024;-85
2022/03/06 12:16:03;;;;;;;7.13;4.68;;;1.20;99.90;;;;;;5116660;28;20027;-83
2022/03/06 12:18:29;;;;;;;;;;;1.20;99.90;;;;;;5116669;28;20107;-85
2022/03/06 12:20:55;;;;;;;;;;;1.20;99.90;;;;;;5098674;28;20012;-83
2022/03/06 12:23:28;;;;;;;10.73;4.60;;;1.20;99.90;;;;;;5116547;28;20355;-83
2022/03/06 12:25:56;;;;;;;6.22;3.80;;;1.20;99.90;;;;;;5115468;28;20023;-84
2022/03/06 12:28:24;;;;;;;9.65;4.65;;;1.10;99.90;;;;;;5116082;28;20076;-83
2022/03/06 12:30:52;;;;;;;8.98;5.38;;;1.10;99.90;;;;;;5115888;28;20024;-83
2022/03/06 12:33:33;;;;;;;11.38;5.95;;;1.10;99.90;;;;;;5115959;28;20357;-83
2022/03/06 12:36:18;;;;;;;7.40;4.80;;;1.10;99.90;;;;;;5097896;28;20027;-83
2022/03/06 12:38:45;;;;;;;8.68;4.47;;;1.10;99.90;;;;;;5115612;28;20108;-83
2022/03/06 12:41:11;;;;;;;7.85;3.95;;;1.10;99.90;;;;;;5115910;28;20019;-84
2022/03/06 12:43:46;;;;;;;5.22;3.88;;;1.10;99.90;;;;;;5115666;28;20053;-84
2022/03/06 12:46:13;;;;;;;5.10;3.67;;;1.10;99.90;;;;;;5115487;28;20024;-83